Friday, January 18, 2019, 11:29 PM EST
Back to Local

KPSF, Pittsfield Municipal Airport

Location: Pittsfield, MA, United States Lat: 42.433
Local Time: 11:29 PM EST ( 4:29 GMT) Lon: -73.283
Time Zone: US/Eastern Elev: 1194 ft

Show me the last for .
Show Decoded

2019-01-18 22:54 METAR KPSF 190354Z AUTO 29005KT 10SM BKN032 OVC042 M02/M07 A3007 RMK AO2 SLP195
                 T10171067 =
2019-01-18 21:54 METAR KPSF 190254Z AUTO 29010KT 10SM FEW023 OVC043 M01/M07 A3006 RMK AO2 SLP193
                 T10111067 51014 =
2019-01-18 21:32 METAR KPSF 190232Z AUTO 30007KT 10SM SCT027 BKN036 OVC045 M01/M06 A3005 RMK AO2
                 T10111061 =
2019-01-18 21:03 METAR KPSF 190203Z AUTO 31010KT 10SM BKN029 OVC035 M01/M06 A3005 RMK AO2
                 T10111061 =
2019-01-18 20:54 METAR KPSF 190154Z AUTO 30008KT 10SM OVC031 M01/M06 A3005 RMK AO2 SLP189
                 T10111061 =
2019-01-18 20:45 METAR KPSF 190145Z AUTO 29010KT 10SM FEW025 OVC034 M01/M06 A3005 RMK AO2
                 T10111061 =
2019-01-18 19:54 METAR KPSF 190054Z AUTO 30008KT 10SM BKN016 OVC023 M01/M04 A3004 RMK AO2 SLP184
                 T10061044 =
2019-01-18 19:42 METAR KPSF 190042Z AUTO 32010G15KT 10SM BKN015 BKN021 OVC028 M01/M04 A3003 RMK
                 AO2 T10061044 =
2019-01-18 19:32 METAR KPSF 190032Z AUTO 30006KT 10SM BKN013 OVC018 M01/M04 A3004 RMK AO2
                 T10061039 =
2019-01-18 18:54 METAR KPSF 182354Z AUTO 24005KT 10SM BKN020 OVC026 00/M04 A3002 RMK AO2 SLP179
                 T00001039 10000 21011 53016 =
2019-01-18 17:54 METAR KPSF 182254Z AUTO 25006KT 10SM OVC022 M01/M03 A2999 RMK AO2 SLP172
                 T10061033 =
2019-01-18 16:54 METAR KPSF 182154Z AUTO 23006KT 10SM OVC026 00/M04 A2997 RMK AO2 SLP164
                 T00001039 =
2019-01-18 16:36 METAR KPSF 182136Z AUTO 25006KT 10SM SCT014 OVC026 00/M03 A2998 RMK AO2
                 T00001033 =
2019-01-18 16:10 METAR KPSF 182110Z AUTO 24007KT 10SM OVC014 00/M03 A2998 RMK AO2 T00001033 =
2019-01-18 15:54 METAR KPSF 182054Z AUTO 24006KT 10SM OVC015 00/M03 A2997 RMK AO2 SLP163
                 T00001033 53002 =
2019-01-18 14:54 METAR KPSF 181954Z AUTO 24004KT 10SM OVC015 00/M04 A2994 RMK AO2 SLP154
                 T00001039 =
2019-01-18 13:54 METAR KPSF 181854Z AUTO VRB04KT 10SM OVC016 M01/M04 A2994 RMK AO2 SLP154
                 T10061039 =
2019-01-18 13:39 METAR KPSF 181839Z AUTO VRB05KT 10SM OVC016 M01/M04 A2994 RMK AO2 T10061044 =
2019-01-18 13:06 METAR KPSF 181806Z AUTO 00000KT 10SM OVC014 M01/M04 A2995 RMK AO2 T10111044 =
2019-01-18 12:54 METAR KPSF 181754Z AUTO 19004KT 10SM OVC016 M01/M04 A2996 RMK AO2 SLP161
                 T10111044 11011 21061 58025 =
2019-01-18 12:44 METAR KPSF 181744Z AUTO 18006KT 10SM OVC017 M01/M04 A2996 RMK AO2 T10111044 =
2019-01-18 11:54 METAR KPSF 181654Z AUTO VRB03KT 9SM OVC014 M02/M05 A2999 RMK AO2 SLP172
                 T10171050 =
2019-01-18 10:54 METAR KPSF 181554Z AUTO 01003KT 10SM BKN012 OVC017 M03/M07 A3002 RMK AO2 SLP184
                 T10331067 =
2019-01-18 09:54 METAR KPSF 181454Z AUTO 01004KT 10SM BKN013 OVC018 M04/M07 A3004 RMK AO2 SLP191
                 T10441072 56003 =
2019-01-18 09:47 METAR KPSF 181447Z AUTO 36004KT 10SM BKN013 OVC018 M04/M07 A3003 RMK AO2
                 T10441072 =
2019-01-18 09:39 METAR KPSF 181439Z AUTO VRB03KT 10SM OVC015 M04/M07 A3003 RMK AO2 T10391072 =
2019-01-18 09:26 METAR KPSF 181426Z AUTO 04003KT 10SM BKN014 OVC020 M04/M08 A3003 RMK AO2
                 T10441078 =
2019-01-18 08:54 METAR KPSF 181354Z AUTO 03006KT 7SM OVC020 M05/M08 A3004 RMK AO2 SLP193
                 T10501078 =
2019-01-18 07:54 METAR KPSF 181254Z AUTO 19006KT 10SM OVC022 M04/M07 A3003 RMK AO2 SLP189
                 T10391072 =
2019-01-18 06:54 METAR KPSF 181154Z AUTO 03004KT 10SM OVC023 M06/M09 A3005 RMK AO2 SLP197 60001
                 70001 T10611089 11061 21072 55009 =
2019-01-18 06:10 METAR KPSF 181110Z AUTO 03003KT 10SM OVC028 M07/M09 A3004 RMK AO2 T10671089 =
2019-01-18 05:54 METAR KPSF 181054Z AUTO 00000KT 10SM OVC030 M07/M09 A3004 RMK AO2 SLP195
                 T10671089 =
2019-01-18 04:54 METAR KPSF 180954Z AUTO 03004KT 9SM BKN038 OVC046 M07/M09 A3005 RMK AO2 SNE36
                 SLP198 P0000 T10671094 =
2019-01-18 03:54 METAR KPSF 180854Z AUTO 02003KT 4SM -SN BR OVC045 M07/M09 A3007 RMK AO2 SLP203
                 P0000 60001 T10671089 58022 =
2019-01-18 02:54 METAR KPSF 180754Z AUTO 04003KT 3SM -SN OVC041 M07/M09 A3011 RMK AO2 SLP217
                 P0000 T10671094 =
2019-01-18 02:47 METAR KPSF 180747Z AUTO 05004KT 3SM -SN BR OVC039 M07/M09 A3012 RMK AO2 P0000
                 T10721094 =
2019-01-18 02:21 METAR KPSF 180721Z AUTO 07003KT 2 1/2SM -SN OVC035 M07/M09 A3012 RMK AO2 P0000
                 T10671094 =
2019-01-18 01:54 METAR KPSF 180654Z AUTO 00000KT 4SM -SN BR OVC037 M07/M09 A3013 RMK AO2 SLP226
                 P0001 T10721094 =
2019-01-18 01:33 METAR KPSF 180633Z AUTO 05003KT 4SM -SN OVC031 M07/M10 A3013 RMK AO2 P0001
                 T10721100 =
2019-01-18 01:10 METAR KPSF 180610Z AUTO 00000KT 3SM -SN OVC021 M07/M10 A3013 RMK AO2 P0001
                 T10721100 =
2019-01-18 01:04 METAR KPSF 180604Z AUTO 36003KT 1 1/2SM -SN OVC017 M07/M10 A3014 RMK AO2 P0001
                 T10721100 =
2019-01-18 00:54 METAR KPSF 180554Z AUTO 00000KT 1 1/4SM -SN OVC014 M07/M11 A3014 RMK AO2 SNB22
                 SLP229 P0000 60000 T10721106 11061 21089 56012 =
2019-01-18 00:52 METAR KPSF 180552Z AUTO VRB03KT 1 1/4SM -SN OVC014 M07/M11 A3014 RMK AO2 SNB22
                 P0000 =
2019-01-18 00:29 METAR KPSF 180529Z AUTO 00000KT 1 3/4SM -SN OVC020 M07/M13 A3015 RMK AO2 SNB22
                 P0000 T10671128 =
2019-01-18 00:22 METAR KPSF 180522Z AUTO VRB03KT 7SM -SN OVC024 M07/M14 A3015 RMK AO2 SNB22 P0000
                 T10671139 =
2019-01-17 23:54 METAR KPSF 180454Z AUTO 00000KT 10SM OVC048 M07/M14 A3015 RMK AO2 SLP235
                 T10721139 410441144 =

Support USWX by starting your Amazon purchase here.